Malaga, Spain

10:04 AM CET on March 04, 2015 (GMT +0100)
IALALHAU2 | Change Station
CLOSE
Current Station
Personal Weather Station
Location: Alhaurin De La Torre, Malaga
Elevation: 360 ft
Nearby Weather Stations

Elev 360 ft 36.66 °N, 4.55 °W | Updated 9 minutes ago

Partly Cloudy
Partly Cloudy
64.6 °F
Feels Like 64.6 °F
N
7.0
Wind Variable Wind from West
Gusts 12.3 mph

Today
High -- | Low -- °F
--% Chance of Precip.
Yesterday
High -- | Low -- °F
Precip. -- in
7:45 AM 7:14 PM
Waxing Gibbous, 98% visible
Pressure 30.27 in
Visibility 3.1 miles
Clouds Few 200 ft
Dew Point 43 °F
Humidity 46%
Rainfall -999.00 in
Snow Depth Not available.
UV 2 out of 12
Pollen Not available.
Air Quality Not available.
Flu Activity Not available.
SPECI LEMG 040854Z 14005KT 110V190 5000 1000S R31/0900N BR FEW002 14/13 Q1025 NOSIG

More Conditions Fewer Conditions

Pressure 30.27 in
Visibility 3.1 miles
Clouds Few 200 ft
Dew Point 43 °F
Humidity 46%
Rainfall -999.00 in
Snow Depth Not available.
UV 2 out of 12
Pollen Not available.
Air Quality Not available.
Flu Activity Not available.
SPECI LEMG 040854Z 14005KT 110V190 5000 1000S R31/0900N BR FEW002 14/13 Q1025 NOSIG

More Conditions Fewer Conditions

10-Day Weather Forecast

Almanac

Astronomy

Mar. 04, 2015 Rise Set
Actual Time
Civil Twilight
Nautical Twilight
Astronomical Twilight
Moon
Length of Visible Light
Length of Day
Tomorrow will be .
, % of the Moon is Illuminated

Today's Extremes

Country Highs Country Lows

Community

WunderPhotos

Upload Photos

1,802,418 photos uploaded!

WunderBlogs® & News

Nearby

Air Quality

  Air Quality AQ Index Pollutant
Not available.

Snow Depth

Station Depth Elevation

Earthquake Activity

City Distance Mag. Time & Date
Minimum magnitude displayed is 2.5.

Coastal Water Temperatures

Place Temperature

Nearby Weather Stations